Time;durP1;ratioP1;P1;durP2;ratioP2;P2;SDS_P1;SDS_P2;PMS_P1;PMS_P2;Temp;Humidity;BMP_temperature;BMP_pressure;BME280_temperature;BME280_humidity;BME280_pressure;Samples;Min_cycle;Max_cycle;Signal;HPM_P1;HPM_P2
2022/04/03 00:02:23;;;;;;;;;;;1.90;15.80;;;;;;5117756;27;19908;-70
2022/04/03 00:04:48;;;;;;;;;;;1.90;17.00;;;;;;5136730;27;19915;-71
2022/04/03 00:07:14;;;;;;;;;;;2.00;15.20;;;;;;5135731;27;19923;-71
2022/04/03 00:09:39;;;;;;;;;;;1.90;15.40;;;;;;5136759;27;19912;-70
2022/04/03 00:12:05;;;;;;;;;;;1.90;14.80;;;;;;5136683;27;20273;-71
2022/04/03 00:14:31;;;;;;;;;;;2.00;14.90;;;;;;5117453;27;19907;-70
2022/04/03 00:16:56;;;;;;;;;;;1.90;15.00;;;;;;5136580;27;20006;-70
2022/04/03 00:19:22;;;;;;;;;;;1.90;13.70;;;;;;5135753;27;19987;-70
2022/04/03 00:21:47;;;;;;;;;;;1.80;14.50;;;;;;5136488;27;20443;-70
2022/04/03 00:24:13;;;;;;;;;;;;;;;;;;5135985;27;19912;-74
2022/04/03 00:26:39;;;;;;;;;;;1.70;14.70;;;;;;5136179;27;19908;-70
2022/04/03 00:29:04;;;;;;;;;;;1.70;14.20;;;;;;5136283;27;19958;-70
2022/04/03 00:31:29;;;;;;;;;;;1.60;14.40;;;;;;5135440;27;19908;-70
2022/04/03 00:33:55;;;;;;;;;;;1.60;14.90;;;;;;5117849;27;19966;-69
2022/04/03 00:36:21;;;;;;;;;;;1.60;15.80;;;;;;5134491;27;19935;-70
2022/04/03 00:38:46;;;;;;;;;;;1.60;16.20;;;;;;5136140;27;19911;-69
2022/04/03 00:41:12;;;;;;;;;;;;;;;;;;5117439;27;20283;-74
2022/04/03 00:43:38;;;;;;;;;;;1.50;18.20;;;;;;5135695;27;19911;-69
2022/04/03 00:46:04;;;;;;;;;;;1.50;16.90;;;;;;5135958;27;19908;-69
2022/04/03 00:48:29;;;;;;;;;;;1.40;19.00;;;;;;5135207;27;19911;-69
2022/04/03 00:50:55;;;;;;;;;;;1.40;19.30;;;;;;5136003;27;20374;-68
2022/04/03 00:53:21;;;;;;;;;;;1.40;19.20;;;;;;5134994;27;19911;-69
2022/04/03 00:55:46;;;;;;;;;;;;;;;;;;5135783;27;19956;-70
2022/04/03 00:58:12;;;;;;;;;;;;;;;;;;5117041;27;19907;-72
2022/04/03 01:00:38;;;;;;;;;;;1.40;20.30;;;;;;5135186;27;19907;-70
2022/04/03 01:03:04;;;;;;;;;;;1.30;21.00;;;;;;5135696;27;19915;-69
2022/04/03 01:05:30;;;;;;;;;;;1.20;20.50;;;;;;5116408;27;19952;-70
2022/04/03 01:07:55;;;;;;;;;;;1.30;21.30;;;;;;5135364;27;20010;-69
2022/04/03 01:10:21;;;;;;;;;;;1.30;21.20;;;;;;5134770;27;20356;-70
2022/04/03 01:12:47;;;;;;;;;;;1.20;22.30;;;;;;5135753;27;19908;-69
2022/04/03 01:15:16;;;;;;;;;;;1.20;28.90;;;;;;5135452;27;19994;-67
2022/04/03 01:17:42;;;;;;;;;;;1.20;27.50;;;;;;5135182;27;19911;-69
2022/04/03 01:20:08;;;;;;;;;;;1.20;24.80;;;;;;5135552;27;19908;-69
2022/04/03 01:22:34;;;;;;;;;;;1.10;23.80;;;;;;5134629;27;20017;-68
2022/04/03 01:24:59;;;;;;;;;;;1.00;24.50;;;;;;5135484;27;20360;-69
2022/04/03 01:27:25;;;;;;;;;;;0.90;24.90;;;;;;5134366;27;19918;-69
2022/04/03 01:29:52;;;;;;;;;;;0.90;24.50;;;;;;5135232;27;19915;-68
2022/04/03 01:32:18;;;;;;;;;;;;;;;;;;5134587;27;20367;-73
2022/04/03 01:34:44;;;;;;;;;;;0.90;24.60;;;;;;5135117;27;19907;-69
2022/04/03 01:37:09;;;;;;;;;;;0.80;25.10;;;;;;5135311;27;20290;-68
2022/04/03 01:39:35;;;;;;;;;;;0.90;25.00;;;;;;5134256;27;20359;-68
2022/04/03 01:42:01;;;;;;;;;;;0.90;15.80;;;;;;5135013;27;19915;-69
2022/04/03 01:44:26;;;;;;;;;;;0.80;17.60;;;;;;5134087;27;19930;-69
2022/04/03 01:46:52;;;;;;;;;;;0.70;29.90;;;;;;5133743;27;19960;-68
2022/04/03 01:49:18;;;;;;;;;;;;;;;;;;5134232;27;19956;-73
2022/04/03 01:51:43;;;;;;;;;;;0.80;16.80;;;;;;5134332;27;19911;-68
2022/04/03 01:54:09;;;;;;;;;;;0.70;16.90;;;;;;5134797;27;19950;-67
2022/04/03 01:56:34;;;;;;;;;;;0.80;16.90;;;;;;5133926;27;19918;-68
2022/04/03 01:59:03;;;;;;;;;;;0.70;17.50;;;;;;5134662;27;19915;-68
2022/04/03 02:01:30;;;;;;;;;;;0.70;19.90;;;;;;5133858;27;20271;-68
2022/04/03 02:03:55;;;;;;;;;;;0.80;20.00;;;;;;5134558;27;20313;-68
2022/04/03 02:06:21;;;;;;;;;;;;;;;;;;5133597;27;19999;-72
2022/04/03 02:08:47;;;;;;;;;;;0.80;21.40;;;;;;5134491;27;20279;-68
2022/04/03 02:11:14;;;;;;;;;;;0.80;20.50;;;;;;5134474;27;19915;-68
2022/04/03 02:13:40;;;;;;;;;;;0.80;21.00;;;;;;5133522;27;20530;-69
2022/04/03 02:16:05;;;;;;;;;;;0.50;21.80;;;;;;5134315;27;19911;-68
2022/04/03 02:18:31;;;;;;;;;;;0.50;24.20;;;;;;5133515;27;19997;-69
2022/04/03 02:20:56;;;;;;;;;;;0.40;24.70;;;;;;5134189;27;19907;-68
2022/04/03 02:23:22;;;;;;;;;;;;;;;;;;5133418;27;19907;-71
2022/04/03 02:25:50;;;;;;;;;;;0.40;29.10;;;;;;5134138;27;20363;-67
2022/04/03 02:28:19;;;;;;;;;;;0.30;30.60;;;;;;5133993;27;19947;-66
2022/04/03 02:30:44;;;;;;;;;;;0.10;32.10;;;;;;5133718;27;19912;-67
2022/04/03 02:33:10;;;;;;;;;;;0.10;33.70;;;;;;5133896;27;20022;-67
2022/04/03 02:35:35;;;;;;;;;;;0.20;36.40;;;;;;5133477;27;19914;-67
2022/04/03 02:38:01;;;;;;;;;;;0.20;35.70;;;;;;5133559;27;19912;-67
2022/04/03 02:40:27;;;;;;;;;;;0.10;37.40;;;;;;5133164;27;19912;-66
2022/04/03 02:42:52;;;;;;;;;;;0.20;37.80;;;;;;5133543;27;19942;-67
2022/04/03 02:45:18;;;;;;;;;;;0.30;37.80;;;;;;5134079;27;20270;-67
2022/04/03 02:47:48;;;;;;;;;;;0.00;36.60;;;;;;5132986;27;19956;-66
2022/04/03 02:50:16;;;;;;;;;;;0.20;40.40;;;;;;5133719;27;19911;-67
2022/04/03 02:52:41;;;;;;;;;;;0.00;37.80;;;;;;5132954;27;20407;-66
2022/04/03 02:55:07;;;;;;;;;;;-0.10;38.00;;;;;;5133716;27;20041;-67
2022/04/03 02:57:33;;;;;;;;;;;0.00;38.30;;;;;;5132907;27;19915;-67
2022/04/03 02:59:58;;;;;;;;;;;0.10;39.50;;;;;;5133231;27;19915;-68
2022/04/03 03:02:24;;;;;;;;;;;;;;;;;;5133096;27;19918;-73
2022/04/03 03:04:50;;;;;;;;;;;0.20;37.60;;;;;;5133552;27;19940;-66
2022/04/03 03:07:16;;;;;;;;;;;-0.10;36.20;;;;;;5133101;27;20018;-66
